createdAt,value
2019-05-18T00:00:16.425Z,9.58
2019-05-18T00:01:16.499Z,9.53
2019-05-18T00:02:16.764Z,9.45
2019-05-18T00:03:17.013Z,9.34
2019-05-18T00:04:16.290Z,9.33
2019-05-18T00:05:16.553Z,9.30
2019-05-18T00:06:16.823Z,9.26
2019-05-18T00:07:17.095Z,9.26
2019-05-18T00:08:16.413Z,9.29
2019-05-18T00:09:16.669Z,9.20
2019-05-18T00:10:16.948Z,9.19
2019-05-18T00:11:16.993Z,9.17
2019-05-18T00:12:16.259Z,9.15
2019-05-18T00:13:16.572Z,9.13
2019-05-18T00:14:16.837Z,9.16
2019-05-18T00:15:17.124Z,9.22
2019-05-18T00:16:16.390Z,9.24
2019-05-18T00:17:24.779Z,9.16
2019-05-18T00:18:16.935Z,9.15
2019-05-18T00:19:16.229Z,9.15
2019-05-18T00:20:16.516Z,9.10
2019-05-18T00:21:16.564Z,9.06
2019-05-18T00:22:16.832Z,9.05
2019-05-18T00:23:17.096Z,9.03
2019-05-18T00:24:16.369Z,9.02
2019-05-18T00:25:16.646Z,9.03
2019-05-18T00:26:16.902Z,8.99
2019-05-18T00:27:17.168Z,8.96
2019-05-18T00:28:16.437Z,8.96
2019-05-18T00:29:16.709Z,8.99
2019-05-18T00:30:16.995Z,8.98
2019-05-18T00:31:17.065Z,8.99
2019-05-18T00:32:16.334Z,8.94
2019-05-18T00:33:16.588Z,8.95
2019-05-18T00:34:16.876Z,8.95
2019-05-18T00:35:17.149Z,8.95
2019-05-18T00:36:16.419Z,8.98
2019-05-18T00:37:16.690Z,8.95
2019-05-18T00:38:16.958Z,8.88
2019-05-18T00:39:16.212Z,8.84
2019-05-18T00:40:16.486Z,8.86
2019-05-18T00:41:16.533Z,8.82
2019-05-18T00:42:16.796Z,8.75
2019-05-18T00:43:17.069Z,8.76
2019-05-18T00:44:16.356Z,8.75
2019-05-18T00:45:16.620Z,8.76
2019-05-18T00:46:16.890Z,8.76
2019-05-18T00:47:17.155Z,8.76
2019-05-18T00:48:16.424Z,8.68
2019-05-18T00:49:16.703Z,8.65
2019-05-18T00:50:16.983Z,8.61
2019-05-18T00:51:17.038Z,8.59
2019-05-18T00:52:16.307Z,8.58
2019-05-18T00:53:16.569Z,8.57
2019-05-18T00:54:16.843Z,8.59
2019-05-18T00:55:17.113Z,8.52
2019-05-18T00:56:16.379Z,8.51
2019-05-18T00:57:16.643Z,8.51
2019-05-18T00:58:17.001Z,8.47
2019-05-18T00:59:16.419Z,8.51
2019-05-18T01:00:16.754Z,8.48
2019-05-18T01:01:16.777Z,8.45
2019-05-18T01:02:17.203Z,8.45
2019-05-18T01:03:16.470Z,8.47
2019-05-18T01:04:16.747Z,8.45
2019-05-18T01:05:17.007Z,8.39
2019-05-18T01:06:16.272Z,8.37
2019-05-18T01:07:16.547Z,8.39
2019-05-18T01:08:16.828Z,8.40
2019-05-18T01:09:17.115Z,8.44
2019-05-18T01:10:16.426Z,8.40
2019-05-18T01:11:16.491Z,8.34
2019-05-18T01:12:16.758Z,8.30
2019-05-18T01:13:17.022Z,8.29
2019-05-18T01:14:16.279Z,8.26
2019-05-18T01:15:16.605Z,8.24
2019-05-18T01:16:16.880Z,8.19
2019-05-18T01:17:17.144Z,8.21
2019-05-18T01:18:16.408Z,8.17
2019-05-18T01:19:16.683Z,8.17
2019-05-18T01:20:16.952Z,8.16
2019-05-18T01:21:17.005Z,8.14
2019-05-18T01:22:16.266Z,8.16
2019-05-18T01:23:16.540Z,8.12
2019-05-18T01:24:16.814Z,8.10
2019-05-18T01:25:17.086Z,8.10
2019-05-18T01:26:16.352Z,8.08
2019-05-18T01:27:16.622Z,8.05
2019-05-18T01:28:16.883Z,7.98
2019-05-18T01:29:17.146Z,7.98
2019-05-18T01:30:16.425Z,7.98
2019-05-18T01:31:16.449Z,7.95
2019-05-18T01:32:16.735Z,7.98
2019-05-18T01:33:17.014Z,7.95
2019-05-18T01:34:16.305Z,7.92
2019-05-18T01:35:16.575Z,7.91
2019-05-18T01:36:16.850Z,7.89
2019-05-18T01:37:17.122Z,7.86
2019-05-18T01:38:16.400Z,7.82
2019-05-18T01:39:16.675Z,7.81
2019-05-18T01:40:16.940Z,7.81
2019-05-18T01:41:17.016Z,7.78
2019-05-18T01:42:16.284Z,7.82
2019-05-18T01:43:16.549Z,7.81
2019-05-18T01:44:16.813Z,7.78
2019-05-18T01:45:17.639Z,7.71
2019-05-18T01:46:17.045Z,7.71
2019-05-18T01:47:16.312Z,7.69
2019-05-18T01:48:16.570Z,7.68
2019-05-18T01:49:16.834Z,7.65
2019-05-18T01:50:17.105Z,7.62
2019-05-18T01:51:17.174Z,7.61
2019-05-18T01:52:16.455Z,7.58
2019-05-18T01:53:16.729Z,7.57
2019-05-18T01:54:17.006Z,7.51
2019-05-18T01:55:16.270Z,7.50
2019-05-18T01:56:16.533Z,7.45
2019-05-18T01:57:16.815Z,7.35
2019-05-18T01:58:17.093Z,7.33
2019-05-18T01:59:16.391Z,7.30
2019-05-18T02:00:16.669Z,7.24
2019-05-18T02:01:16.734Z,7.20
2019-05-18T02:02:16.436Z,7.16
2019-05-18T02:03:16.697Z,7.12
2019-05-18T02:04:16.965Z,7.06
2019-05-18T02:05:16.235Z,7.06
2019-05-18T02:06:16.506Z,7.05
2019-05-18T02:07:16.777Z,7.03
2019-05-18T02:08:17.051Z,7.03
2019-05-18T02:09:16.335Z,7.02
2019-05-18T02:10:16.613Z,6.99
2019-05-18T02:11:16.650Z,6.96
2019-05-18T02:12:16.909Z,6.86
2019-05-18T02:13:17.177Z,6.85
2019-05-18T02:14:16.442Z,6.86
2019-05-18T02:15:16.721Z,6.85
2019-05-18T02:16:17.071Z,6.86
2019-05-18T02:17:16.342Z,6.85
2019-05-18T02:18:28.140Z,6.85
2019-05-18T02:19:16.681Z,6.85
2019-05-18T02:20:16.964Z,6.84
2019-05-18T02:21:17.025Z,6.85
2019-05-18T02:22:16.307Z,6.85
2019-05-18T02:23:16.569Z,6.84
2019-05-18T02:24:16.837Z,6.76
2019-05-18T02:25:17.120Z,6.71
2019-05-18T02:26:16.398Z,6.68
2019-05-18T02:27:16.682Z,6.67
2019-05-18T02:28:16.948Z,6.69
2019-05-18T02:29:16.213Z,6.69
2019-05-18T02:30:17.683Z,6.67
2019-05-18T02:31:16.547Z,6.67
2019-05-18T02:32:16.826Z,6.68
2019-05-18T02:33:17.117Z,6.65
2019-05-18T02:34:16.386Z,6.65
2019-05-18T02:35:16.686Z,6.63
2019-05-18T02:36:16.956Z,6.63
2019-05-18T02:37:16.234Z,6.59
2019-05-18T02:38:16.578Z,6.54
2019-05-18T02:39:16.914Z,6.54
2019-05-18T02:40:17.203Z,6.49
2019-05-18T02:41:16.239Z,6.48
2019-05-18T02:42:16.527Z,6.48
2019-05-18T02:43:16.819Z,6.43
2019-05-18T02:44:17.092Z,6.43
2019-05-18T02:45:16.367Z,6.41
2019-05-18T02:46:16.638Z,6.38
2019-05-18T02:47:16.921Z,6.33
2019-05-18T02:48:17.183Z,6.27
2019-05-18T02:49:16.539Z,6.27
2019-05-18T02:50:16.853Z,6.23
2019-05-18T02:51:16.894Z,6.20
2019-05-18T02:52:16.587Z,6.19
2019-05-18T02:53:16.857Z,6.16
2019-05-18T02:54:17.132Z,6.14
2019-05-18T02:55:16.417Z,6.13
2019-05-18T02:56:16.703Z,6.09
2019-05-18T02:57:16.969Z,6.08
2019-05-18T02:58:16.242Z,6.09
2019-05-18T02:59:16.547Z,6.06
2019-05-18T03:00:16.833Z,6.00
2019-05-18T03:01:16.880Z,6.03
2019-05-18T03:02:17.160Z,5.98
2019-05-18T03:03:16.437Z,5.96
2019-05-18T03:04:16.714Z,5.95
2019-05-18T03:05:16.997Z,5.92
2019-05-18T03:06:16.267Z,5.93
2019-05-18T03:07:16.547Z,5.89
2019-05-18T03:08:16.818Z,5.91
2019-05-18T03:09:17.081Z,5.92
2019-05-18T03:10:16.370Z,5.91
2019-05-18T03:11:16.435Z,5.89
2019-05-18T03:12:16.707Z,5.92
2019-05-18T03:13:16.978Z,5.89
2019-05-18T03:14:16.264Z,5.86
2019-05-18T03:15:16.578Z,5.85
2019-05-18T03:16:16.855Z,5.86
2019-05-18T03:17:17.117Z,5.82
2019-05-18T03:18:16.390Z,5.86
2019-05-18T03:19:16.670Z,5.85
2019-05-18T03:20:16.993Z,5.86
2019-05-18T03:21:17.043Z,5.85
2019-05-18T03:22:16.322Z,5.85
2019-05-18T03:23:16.581Z,5.88
2019-05-18T03:24:16.850Z,5.88
2019-05-18T03:25:17.142Z,5.86
2019-05-18T03:26:16.414Z,5.86
2019-05-18T03:27:16.696Z,5.85
2019-05-18T03:28:16.957Z,5.86
2019-05-18T03:29:16.220Z,5.86
2019-05-18T03:30:16.507Z,5.88
2019-05-18T03:31:16.555Z,5.88
2019-05-18T03:32:16.844Z,5.89
2019-05-18T03:33:17.125Z,5.86
2019-05-18T03:34:16.407Z,5.86
2019-05-18T03:35:16.686Z,5.84
2019-05-18T03:36:16.978Z,5.84
2019-05-18T03:37:16.248Z,5.79
2019-05-18T03:38:16.532Z,5.79
2019-05-18T03:39:16.800Z,5.79
2019-05-18T03:40:17.090Z,5.75
2019-05-18T03:41:17.143Z,5.74
2019-05-18T03:42:16.412Z,5.67
2019-05-18T03:43:16.682Z,5.64
2019-05-18T03:44:16.960Z,5.61
2019-05-18T03:45:16.238Z,5.58
2019-05-18T03:46:16.514Z,5.55
2019-05-18T03:47:16.780Z,5.60
2019-05-18T03:48:17.048Z,5.55
2019-05-18T03:49:25.807Z,5.54
2019-05-18T03:50:17.059Z,5.51
2019-05-18T03:51:17.105Z,5.54
2019-05-18T03:52:16.379Z,5.52
2019-05-18T03:53:18.220Z,5.52
2019-05-18T03:54:16.855Z,5.54
2019-05-18T03:55:17.167Z,5.54
2019-05-18T03:56:16.443Z,5.52
2019-05-18T03:57:16.718Z,5.55
2019-05-18T03:58:17.025Z,5.54
2019-05-18T03:59:16.306Z,5.54
2019-05-18T04:00:16.591Z,5.57
2019-05-18T04:01:16.673Z,5.57
2019-05-18T04:02:16.930Z,5.60
2019-05-18T04:03:17.213Z,5.58
2019-05-18T04:04:18.504Z,5.72
2019-05-18T04:05:17.025Z,5.74
2019-05-18T04:06:16.306Z,5.75
2019-05-18T04:07:16.589Z,5.74
2019-05-18T04:08:16.858Z,5.77
2019-05-18T04:09:17.196Z,5.77
2019-05-18T04:10:16.485Z,5.72
2019-05-18T04:11:16.547Z,5.77
2019-05-18T04:12:16.818Z,5.75
2019-05-18T04:13:17.092Z,5.79
2019-05-18T04:14:16.374Z,5.81
2019-05-18T04:15:16.656Z,5.85
2019-05-18T04:16:16.938Z,5.84
2019-05-18T04:17:17.212Z,5.88
2019-05-18T04:18:16.497Z,5.89
2019-05-18T04:19:16.785Z,5.89
2019-05-18T04:20:17.059Z,5.92
2019-05-18T04:21:17.094Z,5.92
2019-05-18T04:22:16.356Z,5.96
2019-05-18T04:23:16.621Z,5.93
2019-05-18T04:24:16.894Z,5.98
2019-05-18T04:25:17.201Z,5.99
2019-05-18T04:26:16.494Z,6.05
2019-05-18T04:27:16.768Z,6.09
2019-05-18T04:28:17.052Z,6.10
2019-05-18T04:29:16.322Z,6.17
2019-05-18T04:30:16.587Z,6.17
2019-05-18T04:31:16.658Z,6.19
2019-05-18T04:32:16.933Z,6.16
2019-05-18T04:33:17.205Z,6.16
2019-05-18T04:34:16.494Z,6.19
2019-05-18T04:35:16.777Z,6.20
2019-05-18T04:36:17.051Z,6.20
2019-05-18T04:37:16.339Z,6.21
2019-05-18T04:38:16.613Z,6.21
2019-05-18T04:39:16.935Z,6.26
2019-05-18T04:40:16.228Z,6.36
2019-05-18T04:41:16.298Z,6.36
2019-05-18T04:42:16.573Z,6.31
2019-05-18T04:43:16.849Z,6.31
2019-05-18T04:44:17.137Z,6.38
2019-05-18T04:45:16.449Z,6.43
2019-05-18T04:46:16.717Z,6.47
2019-05-18T04:47:16.993Z,6.49
2019-05-18T04:48:16.290Z,6.55
2019-05-18T04:49:16.577Z,6.57
2019-05-18T04:50:16.853Z,6.59
2019-05-18T04:51:16.925Z,6.63
2019-05-18T04:52:17.212Z,6.67
2019-05-18T04:53:16.479Z,6.69
2019-05-18T04:54:16.759Z,6.71
2019-05-18T04:55:17.039Z,6.72
2019-05-18T04:56:16.309Z,6.75
2019-05-18T04:57:16.653Z,6.79
2019-05-18T04:58:16.934Z,6.84
2019-05-18T04:59:16.206Z,6.88
2019-05-18T05:00:16.493Z,6.91
2019-05-18T05:01:16.553Z,6.98
2019-05-18T05:02:16.817Z,7.15
2019-05-18T05:03:17.095Z,7.24
2019-05-18T05:04:16.382Z,7.30
2019-05-18T05:05:16.666Z,7.34
2019-05-18T05:06:16.941Z,7.38
2019-05-18T05:07:16.207Z,7.43
2019-05-18T05:08:16.476Z,7.45
2019-05-18T05:09:16.769Z,7.50
2019-05-18T05:10:17.045Z,7.54
2019-05-18T05:11:17.101Z,7.58
2019-05-18T05:12:16.367Z,7.62
2019-05-18T05:13:16.634Z,7.66
2019-05-18T05:14:16.904Z,7.72
2019-05-18T05:15:17.182Z,7.81
2019-05-18T05:16:16.450Z,7.85
2019-05-18T05:17:16.714Z,7.96
2019-05-18T05:18:16.990Z,7.99
2019-05-18T05:19:16.257Z,8.06
2019-05-18T05:20:19.546Z,8.09
2019-05-18T05:21:16.592Z,8.20
2019-05-18T05:22:16.896Z,8.27
2019-05-18T05:23:17.166Z,8.47
2019-05-18T05:24:16.447Z,8.47
2019-05-18T05:25:16.716Z,8.54
2019-05-18T05:26:16.978Z,8.62
2019-05-18T05:27:16.243Z,8.72
2019-05-18T05:28:16.506Z,8.78
2019-05-18T05:29:16.769Z,8.88
2019-05-18T05:30:17.067Z,8.89
2019-05-18T05:31:17.094Z,9.00
2019-05-18T05:32:16.374Z,9.03
2019-05-18T05:33:16.643Z,9.06
2019-05-18T05:34:16.975Z,9.10
2019-05-18T05:35:16.272Z,9.16
2019-05-18T05:36:16.567Z,9.22
2019-05-18T05:37:16.836Z,9.26
2019-05-18T05:38:17.107Z,9.36
2019-05-18T05:39:16.390Z,9.37
2019-05-18T05:40:16.711Z,9.36
2019-05-18T05:41:16.927Z,9.45
2019-05-18T05:42:16.238Z,9.50
2019-05-18T05:43:16.505Z,9.55
2019-05-18T05:44:16.781Z,9.61
2019-05-18T05:45:17.075Z,9.65
2019-05-18T05:46:16.318Z,9.71
2019-05-18T05:47:16.588Z,9.71
2019-05-18T05:48:16.846Z,9.84
2019-05-18T05:49:17.110Z,9.85
2019-05-18T05:50:16.399Z,9.95
2019-05-18T05:51:16.462Z,9.98
2019-05-18T05:52:16.728Z,10.01
2019-05-18T05:53:16.996Z,10.14
2019-05-18T05:54:16.261Z,10.13
2019-05-18T05:55:16.539Z,10.24
2019-05-18T05:56:16.814Z,10.37
2019-05-18T05:57:17.098Z,10.41
2019-05-18T05:58:16.368Z,10.61
2019-05-18T05:59:16.647Z,10.74
2019-05-18T06:00:16.926Z,10.77
2019-05-18T06:01:16.967Z,10.85
2019-05-18T06:02:16.240Z,10.99
2019-05-18T06:03:16.512Z,11.03
2019-05-18T06:04:16.784Z,11.03
2019-05-18T06:05:17.055Z,11.16
2019-05-18T06:06:16.330Z,11.20
2019-05-18T06:07:16.652Z,11.25
2019-05-18T06:08:16.926Z,11.33
2019-05-18T06:09:17.215Z,11.40
2019-05-18T06:10:16.490Z,11.46
2019-05-18T06:11:16.530Z,11.60
2019-05-18T06:12:16.819Z,11.64
2019-05-18T06:13:17.132Z,11.70
2019-05-18T06:14:16.406Z,11.85
2019-05-18T06:15:16.669Z,11.88
2019-05-18T06:16:16.961Z,12.02
2019-05-18T06:17:16.235Z,12.02
2019-05-18T06:18:16.523Z,12.02
2019-05-18T06:19:16.877Z,12.05
2019-05-18T06:20:17.165Z,12.22
2019-05-18T06:21:16.227Z,12.35
2019-05-18T06:22:16.514Z,12.36
2019-05-18T06:23:16.775Z,12.49
2019-05-18T06:24:17.047Z,12.51
2019-05-18T06:25:16.338Z,12.68
2019-05-18T06:26:16.600Z,12.70
2019-05-18T06:27:16.862Z,13.08
2019-05-18T06:28:17.147Z,13.32
2019-05-18T06:29:16.418Z,13.37
2019-05-18T06:30:16.718Z,13.44
2019-05-18T06:31:16.755Z,13.55
2019-05-18T06:32:17.029Z,13.58
2019-05-18T06:33:16.299Z,13.78
2019-05-18T06:34:16.564Z,13.88
2019-05-18T06:35:16.832Z,14.46
2019-05-18T06:36:17.106Z,14.46
2019-05-18T06:37:16.367Z,14.39
2019-05-18T06:38:16.635Z,15.05
2019-05-18T06:39:16.893Z,14.80
2019-05-18T06:40:17.178Z,14.44
2019-05-18T06:41:16.251Z,14.81
2019-05-18T06:42:16.510Z,15.19
2019-05-18T06:43:16.777Z,15.59
2019-05-18T06:44:17.090Z,15.41
2019-05-18T06:45:16.361Z,15.38
2019-05-18T06:46:16.637Z,15.85
2019-05-18T06:47:16.905Z,15.88
2019-05-18T06:48:17.170Z,15.36
2019-05-18T06:49:16.446Z,15.23
2019-05-18T06:50:16.719Z,15.71
2019-05-18T06:51:16.771Z,15.80
2019-05-18T06:52:17.047Z,15.69
2019-05-18T06:53:16.335Z,15.76
2019-05-18T06:54:16.719Z,15.91
2019-05-18T06:55:16.982Z,15.78
2019-05-18T06:56:16.244Z,15.85
2019-05-18T06:57:16.509Z,15.85
2019-05-18T06:58:16.777Z,16.29
2019-05-18T06:59:17.054Z,16.31
2019-05-18T07:00:16.350Z,16.11
2019-05-18T07:01:16.393Z,16.15
2019-05-18T07:02:16.666Z,16.18
2019-05-18T07:03:16.937Z,16.15
2019-05-18T07:04:16.217Z,16.39
2019-05-18T07:05:16.487Z,16.40
2019-05-18T07:06:16.746Z,15.85
2019-05-18T07:07:17.030Z,15.41
2019-05-18T07:08:16.286Z,15.66
2019-05-18T07:09:16.550Z,15.63
2019-05-18T07:10:16.826Z,15.63
2019-05-18T07:11:16.887Z,15.70
2019-05-18T07:12:17.170Z,15.97
2019-05-18T07:13:16.446Z,16.24
2019-05-18T07:14:25.145Z,16.38
2019-05-18T07:15:16.472Z,16.39
2019-05-18T07:16:16.740Z,15.70
2019-05-18T07:17:17.001Z,15.57
2019-05-18T07:18:16.273Z,15.90
2019-05-18T07:19:16.550Z,15.98
2019-05-18T07:20:16.855Z,16.07
2019-05-18T07:21:22.105Z,16.39
2019-05-18T07:22:17.065Z,16.36
2019-05-18T07:23:16.337Z,16.33
2019-05-18T07:24:16.605Z,16.40
2019-05-18T07:25:16.876Z,16.47
2019-05-18T07:26:17.153Z,16.57
2019-05-18T07:27:16.411Z,16.57
2019-05-18T07:28:16.687Z,16.32
2019-05-18T07:29:16.948Z,16.46
2019-05-18T07:30:16.213Z,16.45
2019-05-18T07:31:16.302Z,16.40
2019-05-18T07:32:16.597Z,16.40
2019-05-18T07:33:16.853Z,16.01
2019-05-18T07:34:17.132Z,16.15
2019-05-18T07:35:16.404Z,16.27
2019-05-18T07:36:16.670Z,15.94
2019-05-18T07:37:16.950Z,15.74
2019-05-18T07:38:16.224Z,15.54
2019-05-18T07:39:16.482Z,15.66
2019-05-18T07:40:16.767Z,15.90
2019-05-18T07:41:16.835Z,16.18
2019-05-18T07:42:17.097Z,16.05
2019-05-18T07:43:16.361Z,15.97
2019-05-18T07:44:16.633Z,16.09
2019-05-18T07:45:16.904Z,15.98
2019-05-18T07:46:17.172Z,16.01
2019-05-18T07:47:16.434Z,16.11
2019-05-18T07:48:16.707Z,16.31
2019-05-18T07:49:17.207Z,16.59
2019-05-18T07:50:16.475Z,16.80
2019-05-18T07:51:16.542Z,16.81
2019-05-18T07:52:17.388Z,16.56
2019-05-18T07:53:16.737Z,16.56
2019-05-18T07:54:16.993Z,16.55
2019-05-18T07:55:16.267Z,16.62
2019-05-18T07:56:16.537Z,16.43
2019-05-18T07:57:16.804Z,16.55
2019-05-18T07:58:17.091Z,16.66
2019-05-18T07:59:16.374Z,16.49
2019-05-18T08:00:16.982Z,16.38
2019-05-18T08:01:17.027Z,16.73
2019-05-18T08:02:16.283Z,16.70
2019-05-18T08:03:16.541Z,16.64
2019-05-18T08:04:16.821Z,16.45
2019-05-18T08:05:17.086Z,16.63
2019-05-18T08:06:16.369Z,16.71
2019-05-18T08:07:16.633Z,16.71
2019-05-18T08:08:16.900Z,16.66
2019-05-18T08:09:17.174Z,16.64
2019-05-18T08:10:16.502Z,16.63
2019-05-18T08:11:16.554Z,16.55
2019-05-18T08:12:16.830Z,16.68
2019-05-18T08:13:17.104Z,16.80
2019-05-18T08:14:16.565Z,16.76
2019-05-18T08:15:16.821Z,16.28
2019-05-18T08:16:17.094Z,16.47
2019-05-18T08:17:16.374Z,16.64
2019-05-18T08:18:16.677Z,17.24
2019-05-18T08:19:16.946Z,17.13
2019-05-18T08:20:16.197Z,17.33
2019-05-18T08:21:16.294Z,17.53
2019-05-18T08:22:16.559Z,17.46
2019-05-18T08:23:16.822Z,17.17
2019-05-18T08:24:17.091Z,16.95
2019-05-18T08:25:16.367Z,17.01
2019-05-18T08:26:16.620Z,16.86
2019-05-18T08:27:16.879Z,16.74
2019-05-18T08:28:17.142Z,16.50
2019-05-18T08:29:16.420Z,16.59
2019-05-18T08:30:16.688Z,16.62
2019-05-18T08:31:16.753Z,16.78
2019-05-18T08:32:17.016Z,16.98
2019-05-18T08:33:16.314Z,16.91
2019-05-18T08:34:16.588Z,17.17
2019-05-18T08:35:16.857Z,17.25
2019-05-18T08:36:17.119Z,17.42
2019-05-18T08:37:16.399Z,17.48
2019-05-18T08:38:16.762Z,17.52
2019-05-18T08:39:17.022Z,17.10
2019-05-18T08:40:16.295Z,17.21
2019-05-18T08:41:16.356Z,17.46
2019-05-18T08:42:16.616Z,17.32
2019-05-18T08:43:16.884Z,17.45
2019-05-18T08:44:17.163Z,17.38
2019-05-18T08:45:16.435Z,17.17
2019-05-18T08:46:16.705Z,17.24
2019-05-18T08:47:16.976Z,17.69
2019-05-18T08:48:16.240Z,17.59
2019-05-18T08:49:16.516Z,17.32
2019-05-18T08:50:16.819Z,17.39
2019-05-18T08:51:16.864Z,17.43
2019-05-18T08:52:17.122Z,17.41
2019-05-18T08:53:16.393Z,17.56
2019-05-18T08:54:16.660Z,17.46
2019-05-18T08:55:16.946Z,17.57
2019-05-18T08:56:16.236Z,17.54
2019-05-18T08:57:16.518Z,17.69
2019-05-18T08:58:16.797Z,17.74
2019-05-18T08:59:17.067Z,17.70
2019-05-18T09:00:16.381Z,17.73
2019-05-18T09:01:16.423Z,17.84
2019-05-18T09:02:16.690Z,18.04
2019-05-18T09:03:16.956Z,17.56
2019-05-18T09:04:16.234Z,17.68
2019-05-18T09:05:16.514Z,17.87
2019-05-18T09:06:16.832Z,18.14
2019-05-18T09:07:17.110Z,18.10
2019-05-18T09:08:16.396Z,18.24
2019-05-18T09:09:16.687Z,18.24
2019-05-18T09:10:16.954Z,18.31
2019-05-18T09:11:17.017Z,18.28
2019-05-18T09:12:16.288Z,18.54
2019-05-18T09:13:16.543Z,18.60
2019-05-18T09:14:16.806Z,18.55
2019-05-18T09:15:17.105Z,18.38
2019-05-18T09:16:16.373Z,18.21
2019-05-18T09:17:16.681Z,18.25
2019-05-18T09:18:16.947Z,18.03
2019-05-18T09:19:16.210Z,18.21
2019-05-18T09:20:16.489Z,18.32
2019-05-18T09:21:16.549Z,18.19
2019-05-18T09:22:22.991Z,18.17
2019-05-18T09:23:16.854Z,18.08
2019-05-18T09:24:17.128Z,18.46
2019-05-18T09:25:16.395Z,18.29
2019-05-18T09:26:16.659Z,18.41
2019-05-18T09:27:16.915Z,18.32
2019-05-18T09:28:17.185Z,18.62
2019-05-18T09:29:16.446Z,18.59
2019-05-18T09:30:16.708Z,18.49
2019-05-18T09:31:16.778Z,18.45
2019-05-18T09:32:17.044Z,18.58
2019-05-18T09:33:16.331Z,18.59
2019-05-18T09:34:16.594Z,18.63
2019-05-18T09:35:16.863Z,18.44
2019-05-18T09:36:17.169Z,18.35
2019-05-18T09:37:16.474Z,18.48
2019-05-18T09:38:16.745Z,18.94
2019-05-18T09:39:17.014Z,19.13
2019-05-18T09:40:16.298Z,18.94
2019-05-18T09:41:16.341Z,19.08
2019-05-18T09:42:16.612Z,18.82
2019-05-18T09:43:16.879Z,18.44
2019-05-18T09:44:17.152Z,18.76
2019-05-18T09:45:16.415Z,18.80
2019-05-18T09:46:16.695Z,18.93
2019-05-18T09:47:16.983Z,18.54
2019-05-18T09:48:16.341Z,18.60
2019-05-18T09:49:16.626Z,18.97
2019-05-18T09:50:16.902Z,18.62
2019-05-18T09:51:16.942Z,18.33
2019-05-18T09:52:16.206Z,18.27
2019-05-18T09:53:16.485Z,18.31
2019-05-18T09:54:16.760Z,18.65
2019-05-18T09:55:17.047Z,18.62
2019-05-18T09:56:16.312Z,18.80
2019-05-18T09:57:16.587Z,18.73
2019-05-18T09:58:16.937Z,18.93
2019-05-18T09:59:16.306Z,19.00
2019-05-18T10:00:16.604Z,19.30
2019-05-18T10:01:16.670Z,19.41
2019-05-18T10:02:16.990Z,19.51
2019-05-18T10:03:16.292Z,19.20
2019-05-18T10:04:16.566Z,19.49
2019-05-18T10:05:16.843Z,19.28
2019-05-18T10:06:17.113Z,19.41
2019-05-18T10:07:16.398Z,19.18
2019-05-18T10:08:16.709Z,19.25
2019-05-18T10:09:16.984Z,19.24
2019-05-18T10:10:16.271Z,19.34
2019-05-18T10:11:16.357Z,19.35
2019-05-18T10:12:16.624Z,19.76
2019-05-18T10:13:16.891Z,19.55
2019-05-18T10:14:17.169Z,19.97
2019-05-18T10:15:16.443Z,19.41
2019-05-18T10:16:16.726Z,19.03
2019-05-18T10:17:17.012Z,19.20
2019-05-18T10:18:16.287Z,19.35
2019-05-18T10:19:16.546Z,19.73
2019-05-18T10:20:16.877Z,19.70
2019-05-18T10:21:16.926Z,19.99
2019-05-18T10:22:17.192Z,19.31
2019-05-18T10:23:16.518Z,19.28
2019-05-18T10:24:16.783Z,19.18
2019-05-18T10:25:17.079Z,19.51
2019-05-18T10:26:16.349Z,19.68
2019-05-18T10:27:16.629Z,19.90
2019-05-18T10:28:16.895Z,20.06
2019-05-18T10:29:17.173Z,20.14
2019-05-18T10:30:16.459Z,20.01
2019-05-18T10:31:16.544Z,19.81
2019-05-18T10:32:16.798Z,19.94
2019-05-18T10:33:17.071Z,19.69
2019-05-18T10:34:16.346Z,19.99
2019-05-18T10:35:16.613Z,19.94
2019-05-18T10:36:16.875Z,19.84
2019-05-18T10:37:17.145Z,20.20
2019-05-18T10:38:16.417Z,20.07
2019-05-18T10:39:16.701Z,19.91
2019-05-18T10:40:16.983Z,20.28
2019-05-18T10:41:17.048Z,19.97
2019-05-18T10:42:16.314Z,20.24
2019-05-18T10:43:16.580Z,20.00
2019-05-18T10:44:16.858Z,20.32
2019-05-18T10:45:17.135Z,20.11
2019-05-18T10:46:16.399Z,20.23
2019-05-18T10:47:16.731Z,20.38
2019-05-18T10:48:17.007Z,19.94
2019-05-18T10:49:16.277Z,19.99
2019-05-18T10:50:16.561Z,20.29
2019-05-18T10:51:16.609Z,20.28
2019-05-18T10:52:16.891Z,20.71
2019-05-18T10:53:28.176Z,20.72
2019-05-18T10:54:16.434Z,21.27
2019-05-18T10:55:16.694Z,21.04
2019-05-18T10:56:16.961Z,20.52
2019-05-18T10:57:16.218Z,20.46
2019-05-18T10:58:16.488Z,20.35
2019-05-18T10:59:16.757Z,20.31
2019-05-18T11:00:17.053Z,20.55
2019-05-18T11:01:17.099Z,20.58
2019-05-18T11:02:16.382Z,20.83
2019-05-18T11:03:16.655Z,21.13
2019-05-18T11:04:16.949Z,20.94
2019-05-18T11:05:16.238Z,21.00
2019-05-18T11:06:16.513Z,21.42
2019-05-18T11:07:16.786Z,21.57
2019-05-18T11:08:17.066Z,21.20
2019-05-18T11:09:16.330Z,20.82
2019-05-18T11:10:16.604Z,20.59
2019-05-18T11:11:16.650Z,20.39
2019-05-18T11:12:16.910Z,20.62
2019-05-18T11:13:17.471Z,21.04
2019-05-18T11:14:18.815Z,20.99
2019-05-18T11:15:16.375Z,21.52
2019-05-18T11:16:16.639Z,21.86
2019-05-18T11:17:16.899Z,21.47
2019-05-18T11:18:17.170Z,21.27
2019-05-18T11:19:16.447Z,20.80
2019-05-18T11:20:16.738Z,21.24
2019-05-18T11:21:16.792Z,21.27
2019-05-18T11:22:17.068Z,21.18
2019-05-18T11:23:16.347Z,21.25
2019-05-18T11:24:16.609Z,21.72
2019-05-18T11:25:16.887Z,21.65
2019-05-18T11:26:17.156Z,21.78
2019-05-18T11:27:16.426Z,22.02
2019-05-18T11:28:16.703Z,21.62
2019-05-18T11:29:16.981Z,21.52
2019-05-18T11:30:16.264Z,21.80
2019-05-18T11:31:16.335Z,21.61
2019-05-18T11:32:16.605Z,21.13
2019-05-18T11:33:16.878Z,21.23
2019-05-18T11:34:17.143Z,21.72
2019-05-18T11:35:16.417Z,21.68
2019-05-18T11:36:16.681Z,21.99
2019-05-18T11:37:16.928Z,21.57
2019-05-18T11:38:17.185Z,21.66
2019-05-18T11:39:16.465Z,21.65
2019-05-18T11:40:16.743Z,21.54
2019-05-18T11:41:16.807Z,21.29
2019-05-18T11:42:17.110Z,21.31
2019-05-18T11:43:16.376Z,21.27
2019-05-18T11:44:16.650Z,21.51
2019-05-18T11:45:16.990Z,21.33
2019-05-18T11:46:16.269Z,21.09
2019-05-18T11:47:16.541Z,20.84
2019-05-18T11:48:16.835Z,21.30
2019-05-18T11:49:17.104Z,21.15
2019-05-18T11:50:16.383Z,21.02
2019-05-18T11:51:16.440Z,21.07
2019-05-18T11:52:16.706Z,21.21
2019-05-18T11:53:16.963Z,21.38
2019-05-18T11:54:16.224Z,21.72
2019-05-18T11:55:16.507Z,21.76
2019-05-18T11:56:16.773Z,21.97
2019-05-18T11:57:17.037Z,22.02
2019-05-18T11:58:16.301Z,22.33
2019-05-18T11:59:16.570Z,22.21
2019-05-18T12:00:16.840Z,22.16
2019-05-18T12:01:16.899Z,22.21
2019-05-18T12:02:17.191Z,22.40
2019-05-18T12:03:16.470Z,22.10
2019-05-18T12:04:16.758Z,21.59
2019-05-18T12:05:17.029Z,21.58
2019-05-18T12:06:16.389Z,22.12
2019-05-18T12:07:16.674Z,21.83
2019-05-18T12:08:16.932Z,21.88
2019-05-18T12:09:17.213Z,21.79
2019-05-18T12:10:18.453Z,21.82
2019-05-18T12:11:16.561Z,21.89
2019-05-18T12:12:16.848Z,22.02
2019-05-18T12:13:17.139Z,21.88
2019-05-18T12:14:16.454Z,21.62
2019-05-18T12:15:16.733Z,21.65
2019-05-18T12:16:17.586Z,21.71
2019-05-18T12:17:16.891Z,21.68
2019-05-18T12:18:17.161Z,21.49
2019-05-18T12:19:16.436Z,21.58
2019-05-18T12:20:16.725Z,21.52
2019-05-18T12:21:16.758Z,21.55
2019-05-18T12:22:17.026Z,21.73
2019-05-18T12:23:16.292Z,21.72
2019-05-18T12:24:16.564Z,21.70
2019-05-18T12:25:16.860Z,21.93
2019-05-18T12:26:17.142Z,21.98
2019-05-18T12:27:16.409Z,22.10
2019-05-18T12:28:16.677Z,21.89
2019-05-18T12:29:16.927Z,21.99
2019-05-18T12:30:17.222Z,21.98
2019-05-18T12:31:16.328Z,21.98
2019-05-18T12:32:16.596Z,22.03
2019-05-18T12:33:16.882Z,22.03
2019-05-18T12:34:17.158Z,21.91
2019-05-18T12:35:16.434Z,21.96
2019-05-18T12:36:16.710Z,22.02
2019-05-18T12:37:16.977Z,21.88
2019-05-18T12:38:16.247Z,21.73
2019-05-18T12:39:16.506Z,21.73
2019-05-18T12:40:16.780Z,21.91
2019-05-18T12:41:16.836Z,21.95
2019-05-18T12:42:17.099Z,21.82
2019-05-18T12:43:16.364Z,21.68
2019-05-18T12:44:16.647Z,21.76
2019-05-18T12:45:16.923Z,21.92
2019-05-18T12:46:17.206Z,21.82
2019-05-18T12:47:16.479Z,21.79
2019-05-18T12:48:16.743Z,21.62
2019-05-18T12:49:17.018Z,21.62
2019-05-18T12:50:16.295Z,21.73
2019-05-18T12:51:16.392Z,21.73
2019-05-18T12:52:16.681Z,21.78
2019-05-18T12:53:17.716Z,21.72
2019-05-18T12:54:28.617Z,21.72
2019-05-18T12:55:16.535Z,21.66
2019-05-18T12:56:16.793Z,21.73
2019-05-18T12:57:17.062Z,21.66
2019-05-18T12:58:16.333Z,21.61
2019-05-18T12:59:16.589Z,21.69
2019-05-18T13:00:16.865Z,21.66
2019-05-18T13:01:16.922Z,21.61
2019-05-18T13:02:17.186Z,21.58
2019-05-18T13:03:16.453Z,21.58
2019-05-18T13:04:16.737Z,21.65